Time;durP1;ratioP1;P1;durP2;ratioP2;P2;SDS_P1;SDS_P2;PMS_P1;PMS_P2;Temp;Humidity;BMP_temperature;BMP_pressure;BME280_temperature;BME280_humidity;BME280_pressure;Samples;Min_cycle;Max_cycle;Signal;HPM_P1;HPM_P2
2022/01/03 00:00:24;;;;;;;0.30;0.20;;;3.30;99.90;;;;;;5071170;28;20494;-86
2022/01/03 00:02:53;;;;;;;0.30;0.10;;;3.20;99.90;;;;;;5068249;28;20447;-84
2022/01/03 00:05:20;;;;;;;1.23;1.23;;;3.20;99.90;;;;;;5061563;28;20513;-84
2022/01/03 00:07:48;;;;;;;0.30;0.10;;;3.20;99.90;;;;;;5067224;28;21012;-84
2022/01/03 00:10:16;;;;;;;0.30;0.10;;;3.10;99.90;;;;;;5068811;28;20497;-85
2022/01/03 00:12:44;;;;;;;0.30;0.10;;;3.10;99.90;;;;;;5070486;28;20444;-84
2022/01/03 00:15:14;;;;;;;0.40;0.20;;;3.10;99.90;;;;;;5059149;28;21893;-86
2022/01/03 00:17:41;;;;;;;0.30;0.20;;;3.10;99.90;;;;;;5058278;28;20935;-84
2022/01/03 00:20:12;;;;;;;0.30;0.10;;;3.20;99.90;;;;;;5064229;28;20906;-87
2022/01/03 00:22:44;;;;;;;0.30;0.10;;;3.30;99.90;;;;;;5060536;28;20974;-85
2022/01/03 00:25:17;;;;;;;0.30;0.10;;;3.30;99.90;;;;;;5057680;28;20490;-87
2022/01/03 00:27:50;;;;;;;0.30;0.10;;;3.40;99.90;;;;;;5062257;28;20790;-86
2022/01/03 00:30:21;;;;;;;0.30;0.10;;;3.40;99.90;;;;;;5060761;28;20441;-87
2022/01/03 00:32:51;;;;;;;0.30;0.10;;;3.40;99.90;;;;;;5061495;28;20456;-85
2022/01/03 00:35:21;;;;;;;0.30;0.10;;;3.50;99.90;;;;;;5069182;28;20498;-85
2022/01/03 00:37:50;;;;;;;0.30;0.10;;;3.50;99.90;;;;;;5063104;28;20441;-86
2022/01/03 00:40:20;;;;;;;0.30;0.20;;;3.50;99.90;;;;;;5062107;28;20812;-85
2022/01/03 00:42:49;;;;;;;0.30;0.10;;;3.60;99.90;;;;;;5064133;28;20481;-83
2022/01/03 00:45:16;;;;;;;0.30;0.10;;;3.70;99.90;;;;;;5060103;28;20490;-86
2022/01/03 00:47:44;;;;;;;0.43;0.37;;;3.90;99.90;;;;;;5066494;28;20505;-87
2022/01/03 00:50:15;;;;;;;0.30;0.10;;;4.00;99.90;;;;;;5061137;28;21510;-86
2022/01/03 00:52:44;;;;;;;0.30;0.10;;;4.00;99.90;;;;;;5060254;28;20441;-88
2022/01/03 00:55:12;;;;;;;0.30;0.10;;;4.10;99.90;;;;;;5068052;28;20471;-88
2022/01/03 00:57:56;;;;;;;0.30;0.23;;;4.30;99.90;;;;;;5058308;28;20464;-87
2022/01/03 01:00:23;;;;;;;0.30;0.10;;;4.50;99.90;;;;;;5063172;28;20540;-88
2022/01/03 01:02:57;;;;;;;0.30;0.17;;;4.60;99.90;;;;;;5066042;28;20436;-88
2022/01/03 01:05:24;;;;;;;0.30;0.20;;;4.90;99.90;;;;;;5057261;28;20477;-87
2022/01/03 01:07:56;;;;;;;0.30;0.10;;;5.10;99.90;;;;;;5067179;28;20462;-88
2022/01/03 01:10:26;;;;;;;0.30;0.10;;;5.30;99.90;;;;;;5062320;28;20530;-86
2022/01/03 01:12:55;;;;;;;0.30;0.10;;;5.40;99.90;;;;;;5066360;28;20498;-86
2022/01/03 01:15:22;;;;;;;1.27;0.50;;;5.50;99.90;;;;;;5064295;28;20499;-87
2022/01/03 01:17:50;;;;;;;0.30;0.20;;;5.60;99.90;;;;;;5062549;28;20488;-84
2022/01/03 01:20:20;;;;;;;0.53;0.50;;;5.60;99.90;;;;;;5061836;28;20549;-87
2022/01/03 01:22:47;;;;;;;0.30;0.20;;;5.60;99.90;;;;;;5069632;28;20540;-87
2022/01/03 01:27:45;;;;;;;0.30;0.20;;;5.70;99.90;;;;;;5071746;28;20530;-87
2022/01/03 01:28:12;;;;;;;0.30;0.10;;;5.80;99.90;;;;;;5085553;28;20547;-86
2022/01/03 01:30:43;;;;;;;0.30;0.10;;;5.90;99.90;;;;;;5089417;28;20448;-87
2022/01/03 01:33:12;;;;;;;0.30;0.20;;;6.00;99.90;;;;;;5078561;28;20967;-87
2022/01/03 01:35:46;;;;;;;0.30;0.20;;;6.00;99.90;;;;;;5070566;28;20533;-88
2022/01/03 01:38:16;;;;;;;0.30;0.10;;;6.00;99.90;;;;;;5069411;28;20465;-87
2022/01/03 01:40:47;;;;;;;0.30;0.10;;;6.10;99.90;;;;;;5066017;28;20436;-87
2022/01/03 01:43:18;;;;;;;0.30;0.10;;;6.20;99.90;;;;;;5063294;28;20431;-87
2022/01/03 01:45:49;;;;;;;0.30;0.10;;;6.30;99.90;;;;;;5065844;28;20628;-87
2022/01/03 01:48:17;;;;;;;0.30;0.10;;;6.30;99.90;;;;;;5064719;28;20455;-87
2022/01/03 01:50:50;;;;;;;0.30;0.20;;;6.40;99.90;;;;;;5062486;28;20446;-87
2022/01/03 01:53:22;;;;;;;0.30;0.10;;;6.40;99.90;;;;;;5065445;28;20445;-87
2022/01/03 01:55:53;;;;;;;0.30;0.10;;;6.50;99.90;;;;;;5059778;28;20538;-87
2022/01/03 01:58:29;;;;;;;0.30;0.20;;;6.50;99.90;;;;;;5061517;28;20460;-86
2022/01/03 02:01:02;;;;;;;0.30;0.10;;;6.60;99.90;;;;;;5068694;28;20454;-87
2022/01/03 02:03:39;;;;;;;0.30;0.20;;;6.50;99.90;;;;;;5059245;28;20464;-87
2022/01/03 02:06:27;;;;;;;0.30;0.10;;;6.50;99.90;;;;;;5067067;28;20490;-87
2022/01/03 02:09:04;;;;;;;0.33;0.20;;;6.50;99.90;;;;;;5055618;28;20523;-85
2022/01/03 02:11:50;;;;;;;0.30;0.10;;;6.40;99.90;;;;;;5062652;28;20445;-88
2022/01/03 02:14:18;;;;;;;0.30;0.10;;;6.40;99.90;;;;;;5053440;28;20444;-87
2022/01/03 02:16:45;;;;;;;0.30;0.10;;;6.50;99.90;;;;;;5058146;28;20445;-86
2022/01/03 02:19:12;;;;;;;0.30;0.10;;;6.40;99.90;;;;;;5058666;28;20510;-86
2022/01/03 02:21:40;;;;;;;0.30;0.10;;;6.40;99.90;;;;;;5055252;28;20436;-87
2022/01/03 02:24:08;;;;;;;0.30;0.10;;;6.50;99.90;;;;;;5059529;28;20459;-87
2022/01/03 02:26:36;;;;;;;0.30;0.10;;;6.50;99.90;;;;;;5065366;28;20474;-88
2022/01/03 02:29:04;;;;;;;0.30;0.10;;;6.60;99.90;;;;;;5057494;28;20466;-86
2022/01/03 02:31:32;;;;;;;0.30;0.20;;;6.60;99.90;;;;;;5062317;28;20510;-87
2022/01/03 02:34:01;;;;;;;0.30;0.20;;;6.70;99.90;;;;;;5064334;28;20813;-86
2022/01/03 02:36:30;;;;;;;0.30;0.10;;;6.70;99.90;;;;;;5053086;28;20490;-87
2022/01/03 02:38:58;;;;;;;0.30;0.10;;;6.80;99.90;;;;;;5054383;28;20534;-87
2022/01/03 02:41:26;;;;;;;0.30;0.20;;;6.90;99.90;;;;;;5065896;28;20498;-86
2022/01/03 02:43:53;;;;;;;0.50;0.47;;;6.90;99.90;;;;;;5051620;28;20831;-86
2022/01/03 02:46:20;;;;;;;0.30;0.20;;;6.90;99.90;;;;;;5054052;28;20477;-88
2022/01/03 02:48:47;;;;;;;0.30;0.10;;;6.90;99.90;;;;;;5068337;28;20578;-88
2022/01/03 02:51:15;;;;;;;0.30;0.10;;;6.80;99.90;;;;;;5061205;28;20456;-87
2022/01/03 02:53:43;;;;;;;0.30;0.20;;;6.80;99.90;;;;;;5060025;28;20443;-87
2022/01/03 02:56:11;;;;;;;0.50;0.40;;;6.70;99.90;;;;;;5061451;28;21383;-86
2022/01/03 02:58:38;;;;;;;0.30;0.10;;;6.60;99.90;;;;;;5054327;28;20435;-87
2022/01/03 03:01:06;;;;;;;0.57;0.23;;;6.70;99.90;;;;;;5066527;28;20522;-87
2022/01/03 03:03:33;;;;;;;0.30;0.20;;;6.70;99.90;;;;;;5065730;28;20472;-88
2022/01/03 03:06:00;;;;;;;0.30;0.10;;;6.80;99.90;;;;;;5085964;28;20539;-87
2022/01/03 03:08:27;;;;;;;0.30;0.10;;;7.00;99.90;;;;;;5080059;28;20452;-86
2022/01/03 03:10:54;;;;;;;0.30;0.10;;;7.00;99.90;;;;;;5093734;28;20444;-86
2022/01/03 03:13:23;;;;;;;0.30;0.20;;;7.00;99.90;;;;;;5079596;28;20493;-86
2022/01/03 03:15:50;;;;;;;0.30;0.20;;;7.00;99.90;;;;;;5073101;28;20443;-86
2022/01/03 03:18:17;;;;;;;0.30;0.17;;;7.10;99.90;;;;;;5069688;28;20446;-86
2022/01/03 03:20:45;;;;;;;0.30;0.17;;;7.20;99.90;;;;;;5067303;28;20448;-87
2022/01/03 03:23:12;;;;;;;0.50;0.50;;;7.40;99.90;;;;;;5064463;28;20860;-87
2022/01/03 03:25:39;;;;;;;0.30;0.10;;;7.50;99.90;;;;;;5068351;28;20497;-88
2022/01/03 03:28:08;;;;;;;0.30;0.10;;;7.50;99.90;;;;;;5058205;28;20463;-86
2022/01/03 03:30:39;;;;;;;0.30;0.10;;;7.60;99.90;;;;;;5060638;28;20486;-87
2022/01/03 03:33:10;;;;;;;0.30;0.10;;;7.80;99.90;;;;;;5060290;28;20506;-87
2022/01/03 03:35:37;;;;;;;0.30;0.10;;;8.10;99.90;;;;;;5066057;28;20479;-88
2022/01/03 03:38:05;;;;;;;0.30;0.20;;;8.40;99.90;;;;;;5066603;28;20517;-87
2022/01/03 03:40:32;;;;;;;0.30;0.20;;;8.50;99.90;;;;;;5068834;28;20464;-86
2022/01/03 03:42:59;;;;;;;0.30;0.20;;;8.60;99.90;;;;;;5059417;28;20885;-86
2022/01/03 03:45:26;;;;;;;0.40;0.20;;;8.70;99.90;;;;;;5067989;28;20455;-88
2022/01/03 03:47:57;;;;;;;0.30;0.20;;;8.90;99.90;;;;;;5061297;28;20541;-87
2022/01/03 03:50:24;;;;;;;0.30;0.20;;;9.00;99.90;;;;;;5062055;28;20445;-86
2022/01/03 03:52:53;;;;;;;0.30;0.20;;;9.10;99.90;;;;;;5065673;28;20475;-88
2022/01/03 03:55:20;;;;;;;0.30;0.20;;;9.30;99.90;;;;;;5065493;28;20440;-90
2022/01/03 03:57:47;;;;;;;0.30;0.10;;;9.40;99.90;;;;;;5059375;28;20452;-90
2022/01/03 04:00:17;;;;;;;0.30;0.20;;;9.60;99.90;;;;;;5062058;28;20524;-87
2022/01/03 04:02:44;;;;;;;0.30;0.20;;;9.60;99.90;;;;;;5064203;28;20505;-89
2022/01/03 04:05:13;;;;;;;0.30;0.20;;;9.70;99.90;;;;;;5066093;28;20464;-87
2022/01/03 04:07:40;;;;;;;0.50;0.37;;;9.90;99.90;;;;;;5067017;28;20752;-86
2022/01/03 04:10:09;;;;;;;0.30;0.10;;;9.90;99.90;;;;;;5064273;28;20502;-86
2022/01/03 04:12:36;;;;;;;0.30;0.20;;;9.80;99.90;;;;;;5062089;28;20459;-87
2022/01/03 04:15:04;;;;;;;0.30;0.20;;;9.80;99.90;;;;;;5064418;28;20864;-87
2022/01/03 04:17:31;;;;;;;2.40;0.77;;;9.80;99.90;;;;;;5061295;28;21206;-86
2022/01/03 04:19:58;;;;;;;0.30;0.20;;;9.80;99.90;;;;;;5062784;28;20459;-86
2022/01/03 04:22:26;;;;;;;0.30;0.20;;;9.80;99.90;;;;;;5061048;28;20517;-86
2022/01/03 04:24:53;;;;;;;0.40;0.30;;;9.70;99.90;;;;;;5058158;28;20959;-85
2022/01/03 04:27:21;;;;;;;0.30;0.17;;;9.70;99.90;;;;;;5056978;28;20546;-87
2022/01/03 04:29:48;;;;;;;0.30;0.20;;;9.70;99.90;;;;;;5057852;28;20475;-89
2022/01/03 04:32:15;;;;;;;0.30;0.20;;;9.60;99.90;;;;;;5055507;28;20904;-86
2022/01/03 04:34:42;;;;;;;0.30;0.20;;;9.60;99.90;;;;;;5061330;28;20483;-87
2022/01/03 04:37:09;;;;;;;0.30;0.20;;;9.70;99.90;;;;;;5069039;28;20628;-87
2022/01/03 04:39:38;;;;;;;0.30;0.10;;;9.70;99.90;;;;;;5062249;28;20924;-87
2022/01/03 04:42:05;;;;;;;0.30;0.20;;;9.70;99.90;;;;;;5080984;28;20452;-87
2022/01/03 04:44:32;;;;;;;0.30;0.10;;;9.70;99.90;;;;;;5084833;28;20452;-86
2022/01/03 04:46:59;;;;;;;0.30;0.20;;;9.70;99.90;;;;;;5082391;28;20475;-87
2022/01/03 04:49:26;;;;;;;0.30;0.20;;;9.80;99.90;;;;;;5080087;28;20923;-86
2022/01/03 04:51:54;;;;;;;0.30;0.20;;;9.80;99.90;;;;;;5063282;28;20518;-86
2022/01/03 04:54:21;;;;;;;0.30;0.20;;;9.70;99.90;;;;;;5064111;28;20464;-88
2022/01/03 04:56:49;;;;;;;0.30;0.10;;;9.60;99.90;;;;;;5068104;28;20451;-88
2022/01/03 04:59:16;;;;;;;0.30;0.20;;;9.70;99.90;;;;;;5066875;28;20444;-88
2022/01/03 05:01:43;;;;;;;0.30;0.20;;;9.60;99.90;;;;;;5064227;28;20466;-87
2022/01/03 05:04:10;;;;;;;0.40;0.20;;;9.50;99.90;;;;;;5067014;28;20432;-88
2022/01/03 05:06:37;;;;;;;0.30;0.20;;;9.60;99.90;;;;;;5065875;28;20507;-88
2022/01/03 05:09:04;;;;;;;0.30;0.20;;;9.70;99.90;;;;;;5062778;28;20771;-86
2022/01/03 05:11:31;;;;;;;0.30;0.20;;;9.70;99.90;;;;;;5069149;28;20499;-87
2022/01/03 05:13:59;;;;;;;0.40;0.30;;;9.80;99.90;;;;;;5061797;28;20448;-86
2022/01/03 05:16:26;;;;;;;1.30;0.50;;;9.80;99.90;;;;;;5056058;28;20468;-86
2022/01/03 05:18:53;;;;;;;0.30;0.20;;;9.90;99.90;;;;;;5061126;28;20989;-86
2022/01/03 05:21:20;;;;;;;0.30;0.20;;;9.90;99.90;;;;;;5056142;28;20445;-86
2022/01/03 05:23:47;;;;;;;0.30;0.20;;;9.90;99.90;;;;;;5057310;28;20459;-87
2022/01/03 05:26:16;;;;;;;0.30;0.20;;;9.90;99.90;;;;;;5061331;28;20768;-85
2022/01/03 05:28:45;;;;;;;0.30;0.10;;;9.90;99.90;;;;;;5068704;28;20431;-87
2022/01/03 05:31:14;;;;;;;0.30;0.20;;;9.70;99.90;;;;;;5060738;28;20494;-88
2022/01/03 05:33:41;;;;;;;0.40;0.40;;;9.60;99.90;;;;;;5065233;28;20453;-86
2022/01/03 05:36:08;;;;;;;0.30;0.10;;;9.60;99.90;;;;;;5052926;28;20480;-85
2022/01/03 05:38:35;;;;;;;0.30;0.13;;;9.70;99.90;;;;;;5060731;28;20481;-89
2022/01/03 05:41:02;;;;;;;0.30;0.10;;;9.70;99.90;;;;;;5060754;28;20440;-86
2022/01/03 05:43:29;;;;;;;0.30;0.20;;;9.90;99.90;;;;;;5062304;28;20493;-86
2022/01/03 05:45:56;;;;;;;0.30;0.20;;;9.90;99.90;;;;;;5059941;28;20490;-88
2022/01/03 05:48:24;;;;;;;0.30;0.20;;;10.10;99.90;;;;;;5058168;28;20569;-87
2022/01/03 05:50:52;;;;;;;0.30;0.20;;;10.10;99.90;;;;;;5062865;28;20440;-86
2022/01/03 05:53:19;;;;;;;0.30;0.20;;;10.10;99.90;;;;;;5061344;28;20563;-87
2022/01/03 05:55:46;;;;;;;0.30;0.20;;;10.10;99.90;;;;;;5069175;28;20540;-86
2022/01/03 05:58:14;;;;;;;0.30;0.20;;;10.10;99.90;;;;;;5069213;28;20454;-85
2022/01/03 06:00:41;;;;;;;0.30;0.10;;;10.10;99.90;;;;;;5068730;28;20443;-86
2022/01/03 06:03:08;;;;;;;0.30;0.20;;;10.20;99.90;;;;;;5060493;28;20479;-85
2022/01/03 06:05:53;;;;;;;0.30;0.20;;;10.20;99.90;;;;;;5052903;28;20493;-87
2022/01/03 06:08:20;;;;;;;0.30;0.20;;;10.20;99.90;;;;;;5056934;28;20599;-86
2022/01/03 06:10:47;;;;;;;0.30;0.20;;;10.30;99.90;;;;;;5061970;28;20497;-83
2022/01/03 06:13:14;;;;;;;0.30;0.20;;;10.30;99.90;;;;;;5068866;28;20779;-84
2022/01/03 06:15:42;;;;;;;0.30;0.20;;;10.20;99.90;;;;;;5061345;28;20471;-83
2022/01/03 06:18:10;;;;;;;0.30;0.20;;;10.10;99.90;;;;;;5068604;28;20456;-84
2022/01/03 06:20:39;;;;;;;0.30;0.20;;;10.10;99.90;;;;;;5078591;28;20531;-84
2022/01/03 06:23:06;;;;;;;0.30;0.20;;;10.20;99.90;;;;;;5093064;28;20447;-83
2022/01/03 06:25:33;;;;;;;0.30;0.20;;;10.30;99.90;;;;;;5092317;28;20443;-83
2022/01/03 06:28:00;;;;;;;0.30;0.17;;;10.40;99.90;;;;;;5089607;28;20508;-86
2022/01/03 06:30:27;;;;;;;0.30;0.10;;;10.40;99.90;;;;;;5073573;28;20466;-86
2022/01/03 06:32:54;;;;;;;0.30;0.20;;;10.30;99.90;;;;;;5069290;28;20935;-86
2022/01/03 06:35:21;;;;;;;0.77;0.20;;;10.40;99.90;;;;;;5070913;28;20527;-86
2022/01/03 06:37:50;;;;;;;0.30;0.20;;;10.20;99.90;;;;;;5073408;28;20455;-86
2022/01/03 06:40:17;;;;;;;0.30;0.30;;;10.30;99.90;;;;;;5072019;28;20995;-86
2022/01/03 06:42:44;;;;;;;0.30;0.20;;;10.30;99.90;;;;;;5072018;28;20463;-87
2022/01/03 06:45:11;;;;;;;0.30;0.10;;;10.30;99.90;;;;;;5067751;28;20467;-87
2022/01/03 06:47:38;;;;;;;0.40;0.20;;;10.30;99.90;;;;;;5065112;28;21163;-87
2022/01/03 06:50:06;;;;;;;0.30;0.20;;;10.30;99.90;;;;;;5064455;28;20463;-87
2022/01/03 06:52:32;;;;;;;0.40;0.30;;;10.30;99.90;;;;;;5059883;28;20433;-86
2022/01/03 06:55:01;;;;;;;0.30;0.10;;;10.30;99.90;;;;;;5059678;28;20487;-87
2022/01/03 06:57:29;;;;;;;0.30;0.20;;;10.30;99.90;;;;;;5063372;28;20464;-85
2022/01/03 06:59:56;;;;;;;0.30;0.20;;;10.30;99.90;;;;;;5067788;28;20516;-85
2022/01/03 07:02:23;;;;;;;0.30;0.20;;;10.20;99.90;;;;;;5071945;28;20537;-88
2022/01/03 07:04:50;;;;;;;0.40;0.30;;;9.90;99.90;;;;;;5069868;28;20847;-85
2022/01/03 07:07:17;;;;;;;0.30;0.20;;;9.60;99.90;;;;;;5072301;28;20482;-84
2022/01/03 07:09:44;;;;;;;0.30;0.20;;;9.30;99.90;;;;;;5066136;28;20819;-86
2022/01/03 07:12:12;;;;;;;0.30;0.20;;;9.10;99.90;;;;;;5071509;28;20497;-86
2022/01/03 07:20:10;;;;;;;0.30;0.10;;;8.80;99.90;;;;;;5071413;28;20424;-83
2022/01/03 07:22:40;;;;;;;0.30;0.20;;;8.70;99.90;;;;;;5072106;28;20752;-84
2022/01/03 07:25:08;;;;;;;0.30;0.20;;;8.70;99.90;;;;;;5063422;28;20475;-85
2022/01/03 07:27:37;;;;;;;0.30;0.20;;;8.60;99.90;;;;;;5072055;28;20515;-83
2022/01/03 07:30:06;;;;;;;0.30;0.20;;;8.50;99.90;;;;;;5064320;28;20735;-84
2022/01/03 07:32:33;;;;;;;0.30;0.20;;;8.50;99.90;;;;;;5071094;28;21013;-83
2022/01/03 07:35:00;;;;;;;0.30;0.20;;;8.50;99.90;;;;;;5071320;28;20451;-85
2022/01/03 07:37:27;;;;;;;0.30;0.20;;;8.40;99.90;;;;;;5064620;28;20452;-84
2022/01/03 07:39:54;;;;;;;0.30;0.20;;;8.30;99.90;;;;;;5063899;28;20530;-85
2022/01/03 07:42:21;;;;;;;0.30;0.20;;;8.30;99.90;;;;;;5071060;28;20745;-83
2022/01/03 07:44:49;;;;;;;0.30;0.20;;;8.30;99.90;;;;;;5071361;28;20447;-83
2022/01/03 07:47:16;;;;;;;0.30;0.10;;;8.20;99.90;;;;;;5070151;28;20591;-83
2022/01/03 07:49:43;;;;;;;0.30;0.20;;;8.20;99.90;;;;;;5070350;28;20548;-87
2022/01/03 07:52:10;;;;;;;0.30;0.17;;;8.10;99.90;;;;;;5071163;28;20453;-84
2022/01/03 07:54:37;;;;;;;0.30;0.10;;;8.20;99.90;;;;;;5055532;28;20522;-83
2022/01/03 07:57:04;;;;;;;0.30;0.10;;;8.10;99.90;;;;;;5071622;28;20807;-83
2022/01/03 07:59:31;;;;;;;0.30;0.10;;;8.00;99.90;;;;;;5089544;28;20439;-84
2022/01/03 08:01:59;;;;;;;0.30;0.10;;;8.00;99.90;;;;;;5095480;28;20450;-84
2022/01/03 08:04:26;;;;;;;0.30;0.20;;;8.00;99.90;;;;;;5071204;28;20546;-84
2022/01/03 08:06:53;;;;;;;0.30;0.20;;;8.00;99.90;;;;;;5083125;28;20493;-85
2022/01/03 08:09:20;;;;;;;0.30;0.10;;;8.00;99.90;;;;;;5067249;28;20463;-85
2022/01/03 08:11:47;;;;;;;0.30;0.10;;;8.00;99.90;;;;;;5064098;28;20995;-85
2022/01/03 08:14:14;;;;;;;0.30;0.10;;;7.90;99.90;;;;;;5070696;28;20479;-84
2022/01/03 08:16:41;;;;;;;0.30;0.10;;;7.90;99.90;;;;;;5070740;28;20506;-86
2022/01/03 08:19:09;;;;;;;0.30;0.20;;;7.90;99.90;;;;;;5069798;28;20463;-85
2022/01/03 08:21:36;;;;;;;0.30;0.10;;;7.90;99.90;;;;;;5061846;28;20447;-84
2022/01/03 08:24:04;;;;;;;0.30;0.10;;;8.00;99.90;;;;;;5064703;28;20493;-83
2022/01/03 08:26:31;;;;;;;0.30;0.20;;;8.00;99.90;;;;;;5067370;28;20771;-84
2022/01/03 08:28:58;;;;;;;0.30;0.10;;;8.00;99.90;;;;;;5056471;28;20520;-85
2022/01/03 08:31:25;;;;;;;0.30;0.20;;;8.00;99.90;;;;;;5070129;28;20805;-85
2022/01/03 08:33:53;;;;;;;0.30;0.10;;;8.00;99.90;;;;;;5067668;28;20478;-84
2022/01/03 08:36:21;;;;;;;0.30;0.10;;;7.90;99.90;;;;;;5058030;28;20984;-85
2022/01/03 08:38:48;;;;;;;0.43;0.43;;;7.90;99.90;;;;;;5061289;28;20463;-84
2022/01/03 08:41:15;;;;;;;0.30;0.20;;;7.90;99.90;;;;;;5061329;28;20941;-84
2022/01/03 08:43:42;;;;;;;0.30;0.20;;;7.90;99.90;;;;;;5061098;28;20443;-84
2022/01/03 08:46:09;;;;;;;0.30;0.10;;;7.90;99.90;;;;;;5067584;28;20458;-84
2022/01/03 08:48:36;;;;;;;0.30;0.20;;;7.90;99.90;;;;;;5066649;28;20844;-86
2022/01/03 08:51:03;;;;;;;0.30;0.20;;;7.90;99.90;;;;;;5069868;28;20916;-84
2022/01/03 08:53:32;;;;;;;0.30;0.20;;;7.90;99.90;;;;;;5060640;28;20601;-84
2022/01/03 08:56:00;;;;;;;0.30;0.10;;;7.90;99.90;;;;;;5070079;28;20507;-83
2022/01/03 08:58:27;;;;;;;0.30;0.10;;;7.90;99.90;;;;;;5067111;28;20489;-85
2022/01/03 09:00:54;;;;;;;0.30;0.20;;;7.80;99.90;;;;;;5068588;28;20922;-84
2022/01/03 09:03:21;;;;;;;0.30;0.10;;;7.80;99.90;;;;;;5067897;28;20921;-84
2022/01/03 09:05:49;;;;;;;0.30;0.20;;;7.90;99.90;;;;;;5058055;28;20469;-84
2022/01/03 09:08:16;;;;;;;0.30;0.20;;;7.90;99.90;;;;;;5069068;28;20479;-84
2022/01/03 09:10:45;;;;;;;0.30;0.10;;;7.90;99.90;;;;;;5070402;28;20503;-87
2022/01/03 09:13:12;;;;;;;0.30;0.20;;;7.90;99.90;;;;;;5063075;28;20460;-86
2022/01/03 09:15:44;;;;;;;0.30;0.10;;;7.90;99.90;;;;;;5069107;28;20442;-86
2022/01/03 09:18:11;;;;;;;0.30;0.20;;;7.90;99.90;;;;;;5070068;28;20465;-84
2022/01/03 09:20:38;;;;;;;0.30;0.10;;;8.00;99.90;;;;;;5069601;28;20999;-85
2022/01/03 09:23:10;;;;;;;0.30;0.20;;;8.10;99.90;;;;;;5068283;28;20521;-86
2022/01/03 09:31:08;;;;;;;0.30;0.10;;;8.20;99.90;;;;;;5069505;28;20568;-85
2022/01/03 09:33:35;;;;;;;0.30;0.20;;;8.10;99.90;;;;;;5069723;28;20486;-86
2022/01/03 09:36:02;;;;;;;0.30;0.10;;;8.20;99.90;;;;;;5066177;28;20493;-85
2022/01/03 09:38:29;;;;;;;0.30;0.10;;;8.20;99.90;;;;;;5075390;28;20455;-84
2022/01/03 09:41:02;;;;;;;0.40;0.40;;;8.30;99.90;;;;;;5082895;28;20479;-84
2022/01/03 09:43:36;;;;;;;0.30;0.10;;;8.30;99.90;;;;;;5080720;28;20506;-84
2022/01/03 09:46:04;;;;;;;1.43;1.10;;;8.30;99.90;;;;;;5077146;28;20468;-84
2022/01/03 09:48:32;;;;;;;0.30;0.10;;;8.30;99.90;;;;;;5070208;28;20541;-84
2022/01/03 09:51:00;;;;;;;0.30;0.10;;;8.40;99.90;;;;;;5070002;28;20504;-84
2022/01/03 09:53:27;;;;;;;0.30;0.20;;;8.50;99.90;;;;;;5057182;28;20464;-85
2022/01/03 09:55:55;;;;;;;1.40;0.30;;;8.50;99.90;;;;;;5069566;28;20451;-85
2022/01/03 09:58:23;;;;;;;0.90;0.30;;;8.50;99.90;;;;;;5069832;28;20509;-84
2022/01/03 10:00:51;;;;;;;0.30;0.10;;;8.50;99.90;;;;;;5066786;28;20928;-87
2022/01/03 10:03:18;;;;;;;0.30;0.20;;;8.30;99.90;;;;;;5069455;28;20448;-85
2022/01/03 10:05:45;;;;;;;0.30;0.10;;;8.20;99.90;;;;;;5068518;28;20513;-85
2022/01/03 10:08:12;;;;;;;0.83;0.60;;;8.30;99.90;;;;;;5068694;28;20562;-84
2022/01/03 10:10:40;;;;;;;1.23;1.13;;;8.20;99.90;;;;;;5072636;28;21153;-86
2022/01/03 10:13:07;;;;;;;0.30;0.10;;;8.20;99.90;;;;;;5073431;28;20497;-84
2022/01/03 10:15:34;;;;;;;0.30;0.10;;;8.20;99.90;;;;;;5071924;28;20949;-84
2022/01/03 10:18:03;;;;;;;0.30;0.10;;;8.10;99.90;;;;;;5073243;28;20900;-84
2022/01/03 10:20:32;;;;;;;0.30;0.10;;;8.10;99.90;;;;;;5072953;28;20505;-85
2022/01/03 10:23:09;;;;;;;0.30;0.20;;;8.00;99.90;;;;;;5071408;28;20955;-85
2022/01/03 10:25:36;;;;;;;0.30;0.10;;;8.00;99.90;;;;;;5072678;28;20447;-84
2022/01/03 10:28:04;;;;;;;0.30;0.20;;;8.10;99.90;;;;;;5072856;28;20583;-85
2022/01/03 10:30:34;;;;;;;0.30;0.20;;;8.20;99.90;;;;;;5064279;28;20534;-86
2022/01/03 10:33:04;;;;;;;0.30;0.10;;;8.30;99.90;;;;;;5063487;28;20960;-87
2022/01/03 10:35:40;;;;;;;0.30;0.13;;;8.30;99.90;;;;;;5072536;28;20490;-87
2022/01/03 10:38:08;;;;;;;0.40;0.20;;;8.30;99.90;;;;;;5071411;28;21177;-89
2022/01/03 10:40:36;;;;;;;0.30;0.10;;;8.40;99.90;;;;;;5071950;28;20439;-84
2022/01/03 10:43:16;;;;;;;0.30;0.20;;;8.50;99.90;;;;;;5073328;28;20460;-83
2022/01/03 10:45:44;;;;;;;0.30;0.10;;;8.60;99.90;;;;;;5063425;28;20793;-85
2022/01/03 10:48:30;;;;;;;0.30;0.20;;;8.60;99.90;;;;;;5070817;28;20494;-85
2022/01/03 10:50:57;;;;;;;0.30;0.20;;;8.60;99.90;;;;;;5073860;28;20447;-87
2022/01/03 10:53:36;;;;;;;0.30;0.20;;;8.60;99.90;;;;;;5073873;28;20474;-84
2022/01/03 10:56:35;;;;;;;0.30;0.17;;;8.60;99.90;;;;;;5068247;28;20469;-86
2022/01/03 10:59:05;;;;;;;0.30;0.10;;;8.60;99.90;;;;;;5071958;28;20446;-86
2022/01/03 11:01:33;;;;;;;0.30;0.10;;;8.60;99.90;;;;;;5068221;28;20533;-86
2022/01/03 11:04:02;;;;;;;0.30;0.10;;;8.70;99.90;;;;;;5069234;28;20575;-87
2022/01/03 11:06:51;;;;;;;0.30;0.20;;;8.80;99.90;;;;;;5052517;28;20466;-87
2022/01/03 11:12:20;;;;;;;0.30;0.10;;;8.90;99.90;;;;;;5063724;28;20451;-87
2022/01/03 11:14:47;;;;;;;0.30;0.10;;;9.00;99.90;;;;;;5059639;28;20460;-86
2022/01/03 11:17:25;;;;;;;0.30;0.20;;;9.00;99.90;;;;;;5075681;28;20428;-87
2022/01/03 11:19:57;;;;;;;0.40;0.30;;;9.00;99.90;;;;;;5094446;28;20492;-86
2022/01/03 11:22:45;;;;;;;0.30;0.10;;;9.10;99.90;;;;;;5091668;28;20470;-86
2022/01/03 11:25:13;;;;;;;0.30;0.20;;;9.10;99.90;;;;;;5085769;28;20501;-87
2022/01/03 11:27:41;;;;;;;0.30;0.20;;;9.10;99.90;;;;;;5073446;28;20918;-87
2022/01/03 11:30:10;;;;;;;0.50;0.20;;;9.10;99.90;;;;;;5071929;28;20490;-87
2022/01/03 11:32:43;;;;;;;0.30;0.20;;;9.10;99.90;;;;;;5064175;28;20455;-86
2022/01/03 11:35:12;;;;;;;0.30;0.10;;;9.10;99.90;;;;;;5063956;28;20562;-86
2022/01/03 11:37:42;;;;;;;0.30;0.17;;;9.00;99.90;;;;;;5070760;28;20455;-87
2022/01/03 11:40:11;;;;;;;0.30;0.10;;;9.10;99.90;;;;;;5069991;28;20464;-86
2022/01/03 11:42:39;;;;;;;0.30;0.10;;;9.20;99.90;;;;;;5071834;28;20456;-86
2022/01/03 11:45:07;;;;;;;0.30;0.20;;;9.20;99.90;;;;;;5070042;28;20543;-86
2022/01/03 11:47:34;;;;;;;0.30;0.10;;;9.30;99.90;;;;;;5071574;28;20447;-84
2022/01/03 11:50:01;;;;;;;0.30;0.20;;;9.30;99.90;;;;;;5071998;28;20997;-87
2022/01/03 11:52:31;;;;;;;0.30;0.20;;;9.30;99.90;;;;;;5065611;28;20460;-86
2022/01/03 11:54:58;;;;;;;0.30;0.10;;;9.30;99.90;;;;;;5071241;28;20460;-87
2022/01/03 11:57:39;;;;;;;0.30;0.10;;;9.30;99.90;;;;;;5071291;28;20451;-86
2022/01/03 12:05:47;;;;;;;0.30;0.20;;;9.60;99.90;;;;;;5065610;28;20501;-86
2022/01/03 12:08:23;;;;;;;0.30;0.10;;;9.70;99.90;;;;;;5065582;28;20460;-86
2022/01/03 12:10:51;;;;;;;2.00;1.90;;;9.80;99.90;;;;;;5062938;28;20447;-85
2022/01/03 12:13:21;;;;;;;0.30;0.10;;;9.90;99.90;;;;;;5070529;28;20492;-86
2022/01/03 12:16:02;;;;;;;0.40;0.33;;;10.00;99.90;;;;;;5070359;28;20444;-86
2022/01/03 12:18:30;;;;;;;0.30;0.20;;;10.10;99.90;;;;;;5070232;28;20534;-86
2022/01/03 12:20:57;;;;;;;2.10;0.40;;;10.30;99.90;;;;;;5071513;28;20440;-86
2022/01/03 12:23:40;;;;;;;0.30;0.10;;;10.30;99.90;;;;;;5066656;28;20464;-86
2022/01/03 12:26:12;;;;;;;3.70;0.90;;;10.50;99.90;;;;;;5070360;28;20509;-86
2022/01/03 12:29:07;;;;;;;0.30;0.20;;;10.50;99.90;;;;;;5067436;28;20537;-86
2022/01/03 12:32:11;;;;;;;0.30;0.20;;;10.60;99.90;;;;;;5054082;28;20473;-86
2022/01/03 12:34:40;;;;;;;0.40;0.30;;;10.80;99.90;;;;;;5056249;28;20448;-86
2022/01/03 12:37:18;;;;;;;0.30;0.20;;;10.90;99.90;;;;;;5070385;28;20476;-86
2022/01/03 12:40:11;;;;;;;0.30;0.20;;;10.90;99.90;;;;;;5067218;28;20463;-86
2022/01/03 12:42:57;;;;;;;0.30;0.20;;;11.00;99.90;;;;;;5060601;28;20440;-85
2022/01/03 12:45:55;;;;;;;0.30;0.20;;;11.10;99.90;;;;;;5062957;28;20455;-86
2022/01/03 12:48:24;;;;;;;0.30;0.20;;;11.10;99.90;;;;;;5063005;28;20456;-86
2022/01/03 12:51:14;;;;;;;0.30;0.20;;;11.00;99.90;;;;;;5064719;28;20452;-86
2022/01/03 12:53:53;;;;;;;0.30;0.20;;;11.10;99.90;;;;;;5064237;28;20440;-86
2022/01/03 12:56:31;;;;;;;0.30;0.20;;;11.10;99.90;;;;;;5076834;28;20449;-86
2022/01/03 12:58:59;;;;;;;0.30;0.20;;;11.10;99.90;;;;;;5081149;28;20482;-86
2022/01/03 13:01:30;;;;;;;0.30;0.20;;;11.10;99.90;;;;;;5082459;28;20511;-86
2022/01/03 13:04:15;;;;;;;0.30;0.20;;;11.20;99.90;;;;;;5078414;28;20940;-86
2022/01/03 13:06:43;;;;;;;0.33;0.20;;;11.10;99.90;;;;;;5066742;28;20479;-86
2022/01/03 13:09:11;;;;;;;0.30;0.20;;;11.10;99.90;;;;;;5058300;28;20488;-86
2022/01/03 13:11:43;;;;;;;0.30;0.20;;;11.00;99.90;;;;;;5064340;28;20445;-86
2022/01/03 13:14:14;;;;;;;0.30;0.20;;;11.00;99.90;;;;;;5069447;28;20486;-86
2022/01/03 13:16:43;;;;;;;0.30;0.10;;;11.00;99.90;;;;;;5064766;28;20467;-86
2022/01/03 13:19:13;;;;;;;0.30;0.10;;;10.90;99.90;;;;;;5068060;28;20461;-86
2022/01/03 13:21:43;;;;;;;0.30;0.20;;;10.80;99.90;;;;;;5064776;28;20479;-86
2022/01/03 13:24:14;;;;;;;0.30;0.20;;;10.80;99.90;;;;;;5062277;28;20841;-85
2022/01/03 13:26:58;;;;;;;0.30;0.20;;;10.70;99.90;;;;;;5068501;28;20471;-84